EJU54WH LPPT-LPMA
Flight info
| Callsign | EJU54WH |
|---|---|
| Flight time | 1h 36m |
| Altitude | 35000 |
| Route | ULVOT DCT GALPA DCT RAKUN |
| Aircraft | A320/M-SDE2E3FGHIJ1RWXYZ/LB1 |
Departure
| Time | 2026-05-07 09:41 |
|---|---|
| Airport | Lisbon Humberto Delgado Airport (LPPT) |
Arrival
| Time | 2026-05-07 11:17 |
|---|---|
| Airport | Cristiano Ronaldo International Airport (LPMA) |
| Time | Latitude | Longitude | Altitude | Speed | Heading |
|---|---|---|---|---|---|
| 2026-05-07 09:15 | 38.76716 | -9.13001 | 337 ft | 0 kts | 78° |
| 2026-05-07 09:18 | 38.76716 | -9.13002 | 337 ft | 0 kts | 78° |
| 2026-05-07 09:29 | 38.76713 | -9.13016 | 334 ft | 3 kts | 78° |
| 2026-05-07 09:29 | 38.76710 | -9.13040 | 337 ft | 3 kts | 78° |
| 2026-05-07 09:30 | 38.76706 | -9.13063 | 337 ft | 3 kts | 77° |
| 2026-05-07 09:30 | 38.76699 | -9.13086 | 333 ft | 3 kts | 16° |
| 2026-05-07 09:30 | 38.76693 | -9.13088 | 334 ft | 0 kts | 349° |
| 2026-05-07 09:33 | 38.76695 | -9.13089 | 334 ft | 3 kts | 349° |
| 2026-05-07 09:34 | 38.76740 | -9.13100 | 338 ft | 3 kts | 348° |
| 2026-05-07 09:34 | 38.76766 | -9.13109 | 339 ft | 6 kts | 336° |
| 2026-05-07 09:34 | 38.76780 | -9.13168 | 337 ft | 9 kts | 262° |
| 2026-05-07 09:34 | 38.76765 | -9.13259 | 341 ft | 8 kts | 258° |
| 2026-05-07 09:35 | 38.76754 | -9.13328 | 347 ft | 0 kts | 257° |
| 2026-05-07 09:35 | 38.76743 | -9.13376 | 353 ft | 10 kts | 243° |
| 2026-05-07 09:35 | 38.76682 | -9.13438 | 344 ft | 11 kts | 212° |
| 2026-05-07 09:35 | 38.76652 | -9.13500 | 349 ft | 6 kts | 257° |
| 2026-05-07 09:36 | 38.76640 | -9.13573 | 349 ft | 10 kts | 259° |
| 2026-05-07 09:36 | 38.76634 | -9.13611 | 345 ft | 6 kts | 258° |
| 2026-05-07 09:36 | 38.76626 | -9.13663 | 350 ft | 6 kts | 257° |
| 2026-05-07 09:36 | 38.76616 | -9.13717 | 350 ft | 7 kts | 258° |
| 2026-05-07 09:37 | 38.76602 | -9.13800 | 346 ft | 13 kts | 258° |
| 2026-05-07 09:37 | 38.76581 | -9.13929 | 349 ft | 12 kts | 258° |
| 2026-05-07 09:37 | 38.76543 | -9.14035 | 352 ft | 13 kts | 227° |
| 2026-05-07 09:37 | 38.76497 | -9.14126 | 349 ft | 13 kts | 256° |
| 2026-05-07 09:38 | 38.76512 | -9.14226 | 336 ft | 8 kts | 292° |
| 2026-05-07 09:38 | 38.76536 | -9.14299 | 336 ft | 10 kts | 292° |
| 2026-05-07 09:38 | 38.76541 | -9.14316 | 337 ft | 0 kts | 293° |
| 2026-05-07 09:39 | 38.76543 | -9.14320 | 337 ft | 3 kts | 293° |
| 2026-05-07 09:39 | 38.76581 | -9.14403 | 332 ft | 16 kts | 334° |
| 2026-05-07 09:40 | 38.76694 | -9.14363 | 336 ft | 24 kts | 21° |
| 2026-05-07 09:40 | 38.77072 | -9.14161 | 357 ft | 92 kts | 22° |
| 2026-05-07 09:40 | 38.77839 | -9.13751 | 363 ft | 145 kts | 22° |
| 2026-05-07 09:40 | 38.78888 | -9.13176 | 535 ft | 173 kts | 22° |
| 2026-05-07 09:41 | 38.79934 | -9.12473 | 1263 ft | 170 kts | 27° |
| 2026-05-07 09:41 | 38.81001 | -9.11755 | 1763 ft | 179 kts | 20° |
| 2026-05-07 09:41 | 38.82196 | -9.11009 | 2054 ft | 203 kts | 26° |
| 2026-05-07 09:41 | 38.83509 | -9.10091 | 2421 ft | 228 kts | 27° |
| 2026-05-07 09:42 | 38.84953 | -9.09038 | 2950 ft | 247 kts | 27° |
| 2026-05-07 09:42 | 38.86463 | -9.07908 | 3739 ft | 256 kts | 29° |
| 2026-05-07 09:42 | 38.87966 | -9.06630 | 4589 ft | 264 kts | 43° |
| 2026-05-07 09:42 | 38.88877 | -9.04577 | 5377 ft | 272 kts | 79° |
| 2026-05-07 09:43 | 38.88823 | -9.02157 | 6250 ft | 274 kts | 105° |
| 2026-05-07 09:43 | 38.88062 | -8.99942 | 7113 ft | 273 kts | 128° |
| 2026-05-07 09:43 | 38.86662 | -8.98325 | 7939 ft | 273 kts | 153° |
| 2026-05-07 09:43 | 38.85492 | -8.97744 | 8470 ft | 274 kts | 169° |
| 2026-05-07 09:44 | 38.83588 | -8.97724 | 9257 ft | 278 kts | 193° |
| 2026-05-07 09:44 | 38.81829 | -8.98748 | 10022 ft | 282 kts | 218° |
| 2026-05-07 09:44 | 38.80415 | -9.00558 | 10492 ft | 298 kts | 228° |
| 2026-05-07 09:44 | 38.78981 | -9.02611 | 10795 ft | 317 kts | 228° |
| 2026-05-07 09:45 | 38.77016 | -9.05470 | 11641 ft | 327 kts | 229° |
| 2026-05-07 09:45 | 38.75497 | -9.07676 | 12322 ft | 333 kts | 229° |
| 2026-05-07 09:45 | 38.73953 | -9.09905 | 13056 ft | 336 kts | 230° |
| 2026-05-07 09:45 | 38.72386 | -9.12157 | 13754 ft | 341 kts | 229° |
| 2026-05-07 09:46 | 38.71313 | -9.13697 | 14168 ft | 344 kts | 230° |
| 2026-05-07 09:46 | 38.69713 | -9.15988 | 14799 ft | 348 kts | 230° |
| 2026-05-07 09:46 | 38.68093 | -9.18306 | 15414 ft | 351 kts | 230° |
| 2026-05-07 09:46 | 38.66479 | -9.20613 | 16056 ft | 354 kts | 230° |
| 2026-05-07 09:47 | 38.64829 | -9.22971 | 16684 ft | 357 kts | 230° |
| 2026-05-07 09:47 | 38.63162 | -9.25346 | 17331 ft | 360 kts | 231° |
| 2026-05-07 09:47 | 38.61480 | -9.27740 | 17954 ft | 363 kts | 231° |
| 2026-05-07 09:47 | 38.59784 | -9.30154 | 18514 ft | 366 kts | 231° |
| 2026-05-07 09:48 | 38.58075 | -9.32588 | 19057 ft | 369 kts | 231° |
| 2026-05-07 09:48 | 38.56350 | -9.35039 | 19569 ft | 372 kts | 232° |
| 2026-05-07 09:48 | 38.54611 | -9.37506 | 20096 ft | 375 kts | 232° |
| 2026-05-07 09:48 | 38.52859 | -9.39990 | 20615 ft | 378 kts | 232° |
| 2026-05-07 09:49 | 38.51094 | -9.42492 | 21121 ft | 380 kts | 232° |
| 2026-05-07 09:49 | 38.49322 | -9.45005 | 21620 ft | 383 kts | 233° |
| 2026-05-07 09:49 | 38.47534 | -9.47539 | 22113 ft | 385 kts | 232° |
| 2026-05-07 09:49 | 38.45735 | -9.50086 | 22640 ft | 387 kts | 232° |
| 2026-05-07 09:50 | 38.43927 | -9.52644 | 23124 ft | 390 kts | 233° |
| 2026-05-07 09:50 | 38.42105 | -9.55221 | 23589 ft | 392 kts | 233° |
| 2026-05-07 09:50 | 38.40268 | -9.57812 | 23983 ft | 395 kts | 233° |
| 2026-05-07 09:50 | 38.38422 | -9.60411 | 24400 ft | 396 kts | 233° |
| 2026-05-07 09:51 | 38.36574 | -9.63014 | 24810 ft | 397 kts | 233° |
| 2026-05-07 09:51 | 38.34717 | -9.65630 | 25230 ft | 399 kts | 233° |
| 2026-05-07 09:51 | 38.32852 | -9.68252 | 25642 ft | 400 kts | 233° |
| 2026-05-07 09:51 | 38.30980 | -9.70880 | 26040 ft | 401 kts | 233° |
| 2026-05-07 09:52 | 38.29935 | -9.72348 | 26269 ft | 402 kts | 233° |
| 2026-05-07 09:52 | 38.28054 | -9.74988 | 26665 ft | 403 kts | 233° |
| 2026-05-07 09:52 | 38.26167 | -9.77636 | 27058 ft | 405 kts | 233° |
| 2026-05-07 09:52 | 38.24272 | -9.80292 | 27434 ft | 406 kts | 233° |
| 2026-05-07 09:53 | 38.22372 | -9.82954 | 27822 ft | 407 kts | 233° |
| 2026-05-07 09:53 | 38.20468 | -9.85622 | 28204 ft | 408 kts | 233° |
| 2026-05-07 09:53 | 38.18583 | -9.88260 | 28577 ft | 409 kts | 233° |
| 2026-05-07 09:53 | 38.16666 | -9.90943 | 28942 ft | 411 kts | 233° |
| 2026-05-07 09:54 | 38.14739 | -9.93633 | 29292 ft | 412 kts | 233° |
| 2026-05-07 09:54 | 38.12804 | -9.96323 | 29644 ft | 414 kts | 233° |
| 2026-05-07 09:54 | 38.10857 | -9.99029 | 29981 ft | 416 kts | 233° |
| 2026-05-07 09:54 | 38.08903 | -10.01747 | 30264 ft | 417 kts | 233° |
| 2026-05-07 09:55 | 38.06944 | -10.04474 | 30544 ft | 419 kts | 233° |
| 2026-05-07 09:55 | 38.04980 | -10.07206 | 30823 ft | 419 kts | 233° |
| 2026-05-07 09:55 | 38.03010 | -10.09943 | 31114 ft | 420 kts | 233° |
| 2026-05-07 09:55 | 38.01037 | -10.12684 | 31406 ft | 421 kts | 233° |
| 2026-05-07 09:56 | 37.99067 | -10.15413 | 31804 ft | 418 kts | 233° |
| 2026-05-07 09:56 | 37.97106 | -10.18124 | 32213 ft | 416 kts | 234° |
| 2026-05-07 09:56 | 37.95154 | -10.20819 | 32603 ft | 414 kts | 233° |
| 2026-05-07 09:56 | 37.93214 | -10.23495 | 33030 ft | 411 kts | 234° |
| 2026-05-07 09:57 | 37.91291 | -10.26152 | 33469 ft | 408 kts | 234° |
| 2026-05-07 09:57 | 37.89378 | -10.28791 | 33885 ft | 405 kts | 234° |
| 2026-05-07 09:57 | 37.87474 | -10.31413 | 34241 ft | 404 kts | 234° |
| 2026-05-07 09:57 | 37.85580 | -10.34019 | 34541 ft | 403 kts | 234° |
| 2026-05-07 09:58 | 37.83686 | -10.36627 | 34808 ft | 402 kts | 234° |
| 2026-05-07 09:58 | 37.81793 | -10.39239 | 34962 ft | 403 kts | 234° |
| 2026-05-07 09:58 | 37.79915 | -10.41829 | 34990 ft | 397 kts | 234° |
| 2026-05-07 09:59 | 37.76191 | -10.46939 | 34989 ft | 394 kts | 234° |
| 2026-05-07 09:59 | 37.72485 | -10.52018 | 34991 ft | 393 kts | 234° |
| 2026-05-07 10:00 | 37.68785 | -10.57092 | 34994 ft | 392 kts | 234° |
| 2026-05-07 10:00 | 37.65103 | -10.62128 | 34997 ft | 390 kts | 233° |
| 2026-05-07 10:01 | 37.61425 | -10.67147 | 34999 ft | 389 kts | 233° |
| 2026-05-07 10:01 | 37.57771 | -10.72123 | 35000 ft | 389 kts | 233° |
| 2026-05-07 10:02 | 37.54091 | -10.77119 | 34997 ft | 389 kts | 233° |
| 2026-05-07 10:02 | 37.50416 | -10.82114 | 34995 ft | 389 kts | 233° |
| 2026-05-07 10:03 | 37.46742 | -10.87099 | 34996 ft | 389 kts | 233° |
| 2026-05-07 10:03 | 37.43065 | -10.92085 | 34972 ft | 388 kts | 233° |
| 2026-05-07 10:04 | 37.39384 | -10.97056 | 34989 ft | 388 kts | 233° |
| 2026-05-07 10:04 | 37.35711 | -11.02012 | 35001 ft | 387 kts | 233° |
| 2026-05-07 10:05 | 37.32042 | -11.06954 | 35002 ft | 386 kts | 233° |
| 2026-05-07 10:05 | 37.28375 | -11.11884 | 35001 ft | 386 kts | 233° |
| 2026-05-07 10:06 | 37.24714 | -11.16800 | 34994 ft | 386 kts | 233° |
| 2026-05-07 10:06 | 37.21051 | -11.21716 | 34993 ft | 386 kts | 233° |
| 2026-05-07 10:07 | 37.17382 | -11.26623 | 34973 ft | 386 kts | 233° |
| 2026-05-07 10:07 | 37.13741 | -11.31495 | 34983 ft | 385 kts | 233° |
| 2026-05-07 10:08 | 37.10079 | -11.36394 | 34983 ft | 385 kts | 232° |
| 2026-05-07 10:08 | 37.06406 | -11.41275 | 34989 ft | 385 kts | 232° |
| 2026-05-07 10:09 | 37.02744 | -11.46158 | 34995 ft | 385 kts | 232° |
| 2026-05-07 10:09 | 36.99083 | -11.51027 | 34997 ft | 384 kts | 232° |
| 2026-05-07 10:10 | 36.95408 | -11.55888 | 34999 ft | 385 kts | 232° |
| 2026-05-07 10:10 | 36.91736 | -11.60756 | 35002 ft | 385 kts | 232° |
| 2026-05-07 10:11 | 36.88062 | -11.65621 | 34985 ft | 385 kts | 232° |
| 2026-05-07 10:11 | 36.84387 | -11.70481 | 34989 ft | 385 kts | 232° |
| 2026-05-07 10:12 | 36.80707 | -11.75335 | 34995 ft | 385 kts | 232° |
| 2026-05-07 10:12 | 36.77024 | -11.80186 | 34999 ft | 385 kts | 232° |
| 2026-05-07 10:13 | 36.73336 | -11.85031 | 35012 ft | 385 kts | 232° |
| 2026-05-07 10:13 | 36.69676 | -11.89835 | 35015 ft | 385 kts | 232° |
| 2026-05-07 10:14 | 36.65990 | -11.94677 | 34998 ft | 385 kts | 232° |
| 2026-05-07 10:14 | 36.62298 | -11.99513 | 34992 ft | 385 kts | 232° |
| 2026-05-07 10:15 | 36.58599 | -12.04344 | 34987 ft | 385 kts | 232° |
| 2026-05-07 10:15 | 36.54902 | -12.09169 | 34995 ft | 385 kts | 232° |
| 2026-05-07 10:16 | 36.51206 | -12.13987 | 35002 ft | 385 kts | 232° |
| 2026-05-07 10:16 | 36.47508 | -12.18798 | 35007 ft | 385 kts | 232° |
| 2026-05-07 10:17 | 36.43813 | -12.23607 | 35011 ft | 385 kts | 232° |
| 2026-05-07 10:17 | 36.40116 | -12.28401 | 35009 ft | 385 kts | 232° |
| 2026-05-07 10:18 | 36.36415 | -12.33196 | 35010 ft | 385 kts | 232° |
| 2026-05-07 10:18 | 36.32714 | -12.37993 | 34988 ft | 385 kts | 232° |
| 2026-05-07 10:19 | 36.29033 | -12.42746 | 35017 ft | 384 kts | 231° |
| 2026-05-07 10:19 | 36.25332 | -12.47525 | 35025 ft | 384 kts | 231° |
| 2026-05-07 10:20 | 36.21630 | -12.52288 | 35024 ft | 383 kts | 231° |
| 2026-05-07 10:20 | 36.17938 | -12.57039 | 35030 ft | 383 kts | 231° |
| 2026-05-07 10:21 | 36.14243 | -12.61788 | 35036 ft | 383 kts | 231° |
| 2026-05-07 10:21 | 36.10546 | -12.66530 | 35038 ft | 383 kts | 231° |
| 2026-05-07 10:22 | 36.06848 | -12.71259 | 35034 ft | 382 kts | 231° |
| 2026-05-07 10:22 | 36.03156 | -12.75979 | 35005 ft | 382 kts | 231° |
| 2026-05-07 10:23 | 35.99473 | -12.80698 | 35019 ft | 381 kts | 231° |
| 2026-05-07 10:23 | 35.95796 | -12.85393 | 35021 ft | 380 kts | 231° |
| 2026-05-07 10:24 | 35.92108 | -12.90079 | 35032 ft | 380 kts | 231° |
| 2026-05-07 10:24 | 35.88439 | -12.94754 | 35026 ft | 380 kts | 231° |
| 2026-05-07 10:25 | 35.84757 | -12.99424 | 35036 ft | 380 kts | 231° |
| 2026-05-07 10:25 | 35.81105 | -13.04063 | 35031 ft | 379 kts | 231° |
| 2026-05-07 10:26 | 35.77428 | -13.08726 | 35007 ft | 379 kts | 231° |
| 2026-05-07 10:26 | 35.73740 | -13.13379 | 35014 ft | 380 kts | 231° |
| 2026-05-07 10:27 | 35.70052 | -13.18027 | 35013 ft | 380 kts | 231° |
| 2026-05-07 10:27 | 35.66363 | -13.22683 | 35019 ft | 380 kts | 231° |
| 2026-05-07 10:28 | 35.62670 | -13.27332 | 35021 ft | 380 kts | 231° |
| 2026-05-07 10:28 | 35.58977 | -13.31981 | 35022 ft | 380 kts | 231° |
| 2026-05-07 10:29 | 35.55277 | -13.36620 | 35026 ft | 380 kts | 231° |
| 2026-05-07 10:29 | 35.51575 | -13.41253 | 35026 ft | 380 kts | 231° |
| 2026-05-07 10:30 | 35.46026 | -13.48207 | 35010 ft | 381 kts | 231° |
| 2026-05-07 10:30 | 35.42322 | -13.52843 | 35011 ft | 381 kts | 231° |
| 2026-05-07 10:31 | 35.38611 | -13.57480 | 35019 ft | 381 kts | 231° |
| 2026-05-07 10:31 | 35.34897 | -13.62110 | 35021 ft | 381 kts | 231° |
| 2026-05-07 10:32 | 35.31202 | -13.66700 | 35024 ft | 381 kts | 231° |
| 2026-05-07 10:32 | 35.27486 | -13.71316 | 35024 ft | 381 kts | 231° |
| 2026-05-07 10:33 | 35.23772 | -13.75932 | 35025 ft | 381 kts | 231° |
| 2026-05-07 10:33 | 35.20053 | -13.80531 | 35030 ft | 381 kts | 231° |
| 2026-05-07 10:34 | 35.16330 | -13.85137 | 35028 ft | 381 kts | 231° |
| 2026-05-07 10:34 | 35.12612 | -13.89734 | 35045 ft | 380 kts | 231° |
| 2026-05-07 10:35 | 35.08905 | -13.94314 | 35048 ft | 379 kts | 231° |
| 2026-05-07 10:35 | 35.05195 | -13.98882 | 35047 ft | 379 kts | 230° |
| 2026-05-07 10:36 | 35.01487 | -14.03440 | 35042 ft | 378 kts | 230° |
| 2026-05-07 10:36 | 34.97779 | -14.07991 | 35046 ft | 378 kts | 230° |
| 2026-05-07 10:37 | 34.94073 | -14.12537 | 35045 ft | 378 kts | 230° |
| 2026-05-07 10:37 | 34.91001 | -14.16314 | 35006 ft | 378 kts | 230° |
| 2026-05-07 10:38 | 34.87291 | -14.20869 | 35018 ft | 379 kts | 230° |
| 2026-05-07 10:38 | 34.82962 | -14.26156 | 35040 ft | 379 kts | 230° |
| 2026-05-07 10:39 | 34.79845 | -14.29957 | 35047 ft | 379 kts | 230° |
| 2026-05-07 10:39 | 34.76126 | -14.34496 | 35052 ft | 379 kts | 230° |
| 2026-05-07 10:40 | 34.72402 | -14.39025 | 35055 ft | 379 kts | 230° |
| 2026-05-07 10:40 | 34.68678 | -14.43548 | 35059 ft | 378 kts | 230° |
| 2026-05-07 10:41 | 34.64980 | -14.48035 | 35061 ft | 378 kts | 230° |
| 2026-05-07 10:41 | 34.61265 | -14.52549 | 35026 ft | 378 kts | 230° |
| 2026-05-07 10:42 | 34.57551 | -14.57060 | 35031 ft | 378 kts | 230° |
| 2026-05-07 10:42 | 34.53823 | -14.61568 | 35039 ft | 378 kts | 230° |
| 2026-05-07 10:43 | 34.50093 | -14.66065 | 35044 ft | 378 kts | 230° |
| 2026-05-07 10:43 | 34.46366 | -14.70556 | 35047 ft | 377 kts | 230° |
| 2026-05-07 10:44 | 34.42649 | -14.75038 | 35048 ft | 377 kts | 230° |
| 2026-05-07 10:44 | 34.38928 | -14.79518 | 35051 ft | 377 kts | 230° |
| 2026-05-07 10:45 | 34.35206 | -14.83992 | 35050 ft | 377 kts | 230° |
| 2026-05-07 10:45 | 34.31475 | -14.88459 | 35034 ft | 377 kts | 230° |
| 2026-05-07 10:46 | 34.27747 | -14.92929 | 35038 ft | 378 kts | 230° |
| 2026-05-07 10:46 | 34.24013 | -14.97399 | 35068 ft | 376 kts | 229° |
| 2026-05-07 10:47 | 34.20303 | -15.01825 | 35080 ft | 374 kts | 229° |
| 2026-05-07 10:47 | 34.16607 | -15.06240 | 35082 ft | 373 kts | 229° |
| 2026-05-07 10:48 | 34.12944 | -15.10613 | 35078 ft | 373 kts | 229° |
| 2026-05-07 10:48 | 34.09255 | -15.15001 | 35079 ft | 372 kts | 229° |
| 2026-05-07 10:49 | 34.05574 | -15.19383 | 35080 ft | 371 kts | 229° |
| 2026-05-07 10:49 | 34.01898 | -15.23758 | 35055 ft | 371 kts | 229° |
| 2026-05-07 10:50 | 33.98215 | -15.28126 | 35049 ft | 371 kts | 229° |
| 2026-05-07 10:50 | 33.94525 | -15.32487 | 35053 ft | 372 kts | 229° |
| 2026-05-07 10:51 | 33.92681 | -15.34660 | 34850 ft | 371 kts | 228° |
| 2026-05-07 10:51 | 33.90844 | -15.36822 | 34412 ft | 367 kts | 228° |
| 2026-05-07 10:51 | 33.89031 | -15.38961 | 33967 ft | 363 kts | 228° |
| 2026-05-07 10:51 | 33.87241 | -15.41077 | 33504 ft | 358 kts | 228° |
| 2026-05-07 10:52 | 33.85476 | -15.43165 | 33092 ft | 353 kts | 228° |
| 2026-05-07 10:52 | 33.83734 | -15.45222 | 32675 ft | 349 kts | 228° |
| 2026-05-07 10:52 | 33.82018 | -15.47246 | 32270 ft | 344 kts | 228° |
| 2026-05-07 10:52 | 33.80320 | -15.49251 | 31868 ft | 340 kts | 228° |
| 2026-05-07 10:53 | 33.78644 | -15.51226 | 31472 ft | 335 kts | 228° |
| 2026-05-07 10:53 | 33.76986 | -15.53178 | 31083 ft | 331 kts | 228° |
| 2026-05-07 10:53 | 33.75322 | -15.55137 | 30691 ft | 339 kts | 228° |
| 2026-05-07 10:53 | 33.73629 | -15.57131 | 30280 ft | 341 kts | 228° |
| 2026-05-07 10:54 | 33.71926 | -15.59135 | 29878 ft | 343 kts | 228° |
| 2026-05-07 10:54 | 33.70220 | -15.61137 | 29503 ft | 343 kts | 228° |
| 2026-05-07 10:54 | 33.68515 | -15.63136 | 29121 ft | 342 kts | 227° |
| 2026-05-07 10:54 | 33.66816 | -15.65122 | 28750 ft | 340 kts | 227° |
| 2026-05-07 10:55 | 33.65129 | -15.67089 | 28375 ft | 336 kts | 227° |
| 2026-05-07 10:55 | 33.63456 | -15.69040 | 28013 ft | 334 kts | 227° |
| 2026-05-07 10:55 | 33.61794 | -15.70984 | 27639 ft | 333 kts | 228° |
| 2026-05-07 10:55 | 33.60144 | -15.72922 | 27273 ft | 331 kts | 228° |
| 2026-05-07 10:56 | 33.58504 | -15.74847 | 26903 ft | 330 kts | 227° |
| 2026-05-07 10:56 | 33.56866 | -15.76766 | 26487 ft | 328 kts | 227° |
| 2026-05-07 10:56 | 33.55237 | -15.78675 | 26068 ft | 327 kts | 227° |
| 2026-05-07 10:56 | 33.53614 | -15.80580 | 25629 ft | 325 kts | 227° |
| 2026-05-07 10:57 | 33.52007 | -15.82469 | 25206 ft | 323 kts | 227° |
| 2026-05-07 10:57 | 33.50404 | -15.84353 | 24780 ft | 322 kts | 227° |
| 2026-05-07 10:57 | 33.48827 | -15.86203 | 24326 ft | 321 kts | 227° |
| 2026-05-07 10:57 | 33.47235 | -15.88068 | 23880 ft | 320 kts | 227° |
| 2026-05-07 10:58 | 33.45647 | -15.89927 | 23400 ft | 319 kts | 227° |
| 2026-05-07 10:58 | 33.44066 | -15.91777 | 22941 ft | 317 kts | 227° |
| 2026-05-07 10:58 | 33.42494 | -15.93612 | 22498 ft | 314 kts | 227° |
| 2026-05-07 10:58 | 33.40936 | -15.95432 | 22087 ft | 312 kts | 227° |
| 2026-05-07 10:59 | 33.39388 | -15.97239 | 21674 ft | 310 kts | 227° |
| 2026-05-07 10:59 | 33.37850 | -15.99034 | 21260 ft | 308 kts | 227° |
| 2026-05-07 10:59 | 33.36322 | -16.00816 | 20858 ft | 306 kts | 227° |
| 2026-05-07 10:59 | 33.34804 | -16.02587 | 20454 ft | 304 kts | 227° |
| 2026-05-07 11:00 | 33.33297 | -16.04346 | 20058 ft | 302 kts | 227° |
| 2026-05-07 11:00 | 33.31798 | -16.06093 | 19666 ft | 300 kts | 227° |
| 2026-05-07 11:00 | 33.30307 | -16.07831 | 19284 ft | 299 kts | 227° |
| 2026-05-07 11:00 | 33.28823 | -16.09560 | 18893 ft | 297 kts | 227° |
| 2026-05-07 11:01 | 33.27347 | -16.11278 | 18515 ft | 296 kts | 226° |
| 2026-05-07 11:01 | 33.25871 | -16.12993 | 18103 ft | 296 kts | 226° |
| 2026-05-07 11:01 | 33.24399 | -16.14703 | 17711 ft | 293 kts | 226° |
| 2026-05-07 11:01 | 33.22944 | -16.16392 | 17343 ft | 291 kts | 226° |
| 2026-05-07 11:02 | 33.21496 | -16.18075 | 16979 ft | 290 kts | 226° |
| 2026-05-07 11:02 | 33.20054 | -16.19746 | 16622 ft | 288 kts | 226° |
| 2026-05-07 11:02 | 33.18619 | -16.21409 | 16269 ft | 287 kts | 226° |
| 2026-05-07 11:02 | 33.17209 | -16.23043 | 15918 ft | 286 kts | 226° |
| 2026-05-07 11:03 | 33.15787 | -16.24694 | 15577 ft | 285 kts | 226° |
| 2026-05-07 11:03 | 33.14370 | -16.26337 | 15232 ft | 284 kts | 226° |
| 2026-05-07 11:03 | 33.12957 | -16.27973 | 14868 ft | 283 kts | 226° |
| 2026-05-07 11:03 | 33.11546 | -16.29604 | 14541 ft | 282 kts | 226° |
| 2026-05-07 11:04 | 33.10140 | -16.31233 | 14203 ft | 282 kts | 226° |
| 2026-05-07 11:04 | 33.08735 | -16.32858 | 13859 ft | 281 kts | 226° |
| 2026-05-07 11:04 | 33.07332 | -16.34477 | 13488 ft | 281 kts | 226° |
| 2026-05-07 11:04 | 33.05927 | -16.36098 | 13132 ft | 280 kts | 226° |
| 2026-05-07 11:05 | 33.04526 | -16.37715 | 12781 ft | 280 kts | 226° |
| 2026-05-07 11:05 | 33.03131 | -16.39329 | 12426 ft | 279 kts | 226° |
| 2026-05-07 11:05 | 33.01739 | -16.40941 | 12077 ft | 279 kts | 226° |
| 2026-05-07 11:05 | 33.00343 | -16.42554 | 11725 ft | 280 kts | 226° |
| 2026-05-07 11:06 | 32.98947 | -16.44166 | 11369 ft | 279 kts | 226° |
| 2026-05-07 11:06 | 32.97551 | -16.45777 | 11012 ft | 280 kts | 226° |
| 2026-05-07 11:06 | 32.96150 | -16.47386 | 10651 ft | 280 kts | 226° |
| 2026-05-07 11:06 | 32.94768 | -16.48971 | 10286 ft | 280 kts | 226° |
| 2026-05-07 11:07 | 32.93368 | -16.50580 | 9911 ft | 280 kts | 226° |
| 2026-05-07 11:07 | 32.91963 | -16.52176 | 9504 ft | 279 kts | 225° |
| 2026-05-07 11:07 | 32.90532 | -16.53726 | 9127 ft | 278 kts | 224° |
| 2026-05-07 11:07 | 32.89091 | -16.55252 | 8778 ft | 275 kts | 224° |
| 2026-05-07 11:08 | 32.87683 | -16.56733 | 8645 ft | 264 kts | 224° |
| 2026-05-07 11:08 | 32.86333 | -16.58159 | 8460 ft | 256 kts | 224° |
| 2026-05-07 11:08 | 32.85035 | -16.59536 | 8279 ft | 252 kts | 224° |
| 2026-05-07 11:08 | 32.83721 | -16.60935 | 7857 ft | 255 kts | 224° |
| 2026-05-07 11:09 | 32.82397 | -16.62303 | 7420 ft | 250 kts | 218° |
| 2026-05-07 11:09 | 32.80897 | -16.63376 | 6954 ft | 247 kts | 206° |
| 2026-05-07 11:09 | 32.79316 | -16.64073 | 6507 ft | 245 kts | 200° |
| 2026-05-07 11:09 | 32.77708 | -16.64720 | 6013 ft | 243 kts | 200° |
| 2026-05-07 11:10 | 32.76126 | -16.65362 | 5566 ft | 237 kts | 201° |
| 2026-05-07 11:10 | 32.74586 | -16.65987 | 5177 ft | 231 kts | 201° |
| 2026-05-07 11:10 | 32.73115 | -16.66581 | 5028 ft | 215 kts | 200° |
| 2026-05-07 11:10 | 32.71734 | -16.67136 | 4818 ft | 205 kts | 201° |
| 2026-05-07 11:11 | 32.70405 | -16.67674 | 4379 ft | 201 kts | 201° |
| 2026-05-07 11:11 | 32.69078 | -16.68215 | 4056 ft | 202 kts | 201° |
| 2026-05-07 11:11 | 32.67738 | -16.68760 | 3900 ft | 203 kts | 201° |
| 2026-05-07 11:11 | 32.66401 | -16.69306 | 3797 ft | 203 kts | 201° |
| 2026-05-07 11:12 | 32.65063 | -16.69850 | 3698 ft | 204 kts | 201° |
| 2026-05-07 11:12 | 32.63771 | -16.70396 | 3575 ft | 191 kts | 205° |
| 2026-05-07 11:12 | 32.62624 | -16.71225 | 3054 ft | 196 kts | 221° |
| 2026-05-07 11:12 | 32.61710 | -16.72413 | 2555 ft | 195 kts | 237° |
| 2026-05-07 11:13 | 32.61122 | -16.73802 | 2310 ft | 182 kts | 251° |
| 2026-05-07 11:13 | 32.60859 | -16.75197 | 2181 ft | 166 kts | 264° |
| 2026-05-07 11:13 | 32.60872 | -16.76517 | 2095 ft | 157 kts | 277° |
| 2026-05-07 11:13 | 32.61117 | -16.77744 | 2024 ft | 150 kts | 289° |
| 2026-05-07 11:14 | 32.61623 | -16.78832 | 1829 ft | 153 kts | 308° |
| 2026-05-07 11:14 | 32.62397 | -16.79682 | 1630 ft | 150 kts | 326° |
| 2026-05-07 11:14 | 32.63325 | -16.80197 | 1433 ft | 147 kts | 343° |
| 2026-05-07 11:14 | 32.64330 | -16.80358 | 1228 ft | 146 kts | 1° |
| 2026-05-07 11:15 | 32.65341 | -16.80349 | 1036 ft | 145 kts | 0° |
| 2026-05-07 11:15 | 32.66342 | -16.80324 | 841 ft | 143 kts | 7° |
| 2026-05-07 11:15 | 32.67300 | -16.80035 | 653 ft | 141 kts | 21° |
| 2026-05-07 11:15 | 32.68117 | -16.79415 | 457 ft | 141 kts | 44° |
| 2026-05-07 11:16 | 32.68803 | -16.78596 | 236 ft | 140 kts | 43° |
| 2026-05-07 11:16 | 32.69467 | -16.77823 | 175 ft | 122 kts | 42° |
| 2026-05-07 11:16 | 32.69957 | -16.77250 | 194 ft | 74 kts | 45° |
| 2026-05-07 11:16 | 32.70251 | -16.76910 | 196 ft | 52 kts | 44° |
| 2026-05-07 11:17 | 32.70397 | -16.76807 | 204 ft | 17 kts | 37° |
| 2026-05-07 11:17 | 32.70342 | -16.76795 | 193 ft | 19 kts | 226° |
| 2026-05-07 11:17 | 32.70216 | -16.76945 | 193 ft | 28 kts | 223° |
| 2026-05-07 11:17 | 32.70074 | -16.77108 | 198 ft | 29 kts | 224° |
| 2026-05-07 11:18 | 32.69961 | -16.77178 | 199 ft | 14 kts | 181° |
| 2026-05-07 11:18 | 32.69930 | -16.77178 | 188 ft | 0 kts | 180° |
| 2026-05-07 11:18 | 32.69899 | -16.77177 | 187 ft | 9 kts | 180° |
| 2026-05-07 11:18 | 32.69828 | -16.77193 | 183 ft | 10 kts | 214° |
| 2026-05-07 11:19 | 32.69784 | -16.77245 | 179 ft | 11 kts | 226° |
| 2026-05-07 11:19 | 32.69726 | -16.77317 | 172 ft | 12 kts | 225° |
| 2026-05-07 11:19 | 32.69663 | -16.77393 | 169 ft | 13 kts | 225° |
| 2026-05-07 11:19 | 32.69605 | -16.77464 | 169 ft | 11 kts | 227° |
| 2026-05-07 11:20 | 32.69554 | -16.77528 | 169 ft | 10 kts | 226° |
| 2026-05-07 11:20 | 32.69503 | -16.77591 | 169 ft | 11 kts | 226° |
| 2026-05-07 11:20 | 32.69453 | -16.77653 | 169 ft | 10 kts | 226° |
| 2026-05-07 11:20 | 32.69405 | -16.77713 | 169 ft | 10 kts | 227° |
| 2026-05-07 11:21 | 32.69371 | -16.77733 | 169 ft | 4 kts | 165° |
| 2026-05-07 11:21 | 32.69352 | -16.77714 | 169 ft | 3 kts | 137° |
| 2026-05-07 11:21 | 32.69335 | -16.77695 | 169 ft | 3 kts | 138° |
| 2026-05-07 11:21 | 32.69331 | -16.77692 | 169 ft | 0 kts | 138° |